This is the latest recevied weather packets stored in our database for station/object UR7D-12. If no packets are shown the sender has not sent any weather packets the latest 10 day(s).
| Time | Temp. | Humidity | Pressure | Rain* | Wind** | Luminosity | Snow |
|---|---|---|---|---|---|---|---|
| 1777567727 | 11.67° C | 35% | 997.6 hPa | 0 mm | - | - | - |
| 1777566524 | 12.22° C | 32% | 997.4 hPa | 0 mm | - | - | - |
| 1777564422 | 12.78° C | 30% | 997.1 hPa | 0 mm | - | - | - |
| 1777563521 | 13.33° C | 30% | 997.1 hPa | 0 mm | - | - | - |
| 1777562920 | 13.33° C | 31% | 997.1 hPa | 0 mm | - | - | - |
| 1777558116 | 13.89° C | 26% | 997.1 hPa | 0 mm | - | - | - |
| 1777555714 | 13.33° C | 29% | 997.6 hPa | 0 mm | - | - | - |
| 1777551510 | 13.89° C | 27% | 998.1 hPa | 0 mm | - | - | - |
| 1777548207 | 12.22° C | 34% | 998.4 hPa | 0 mm | - | - | - |
| 1777547306 | 12.78° C | 32% | 998.6 hPa | 0 mm | - | - | - |
| 1777545204 | 12.22° C | 31% | 998.9 hPa | 0 mm | - | - | - |
| 1777544903 | 12.22° C | 31% | 999 hPa | 0 mm | - | - | - |
| 1777544603 | 12.22° C | 33% | 998.9 hPa | 0 mm | - | - | - |
| 1777544305 | 11.67° C | 33% | 998.9 hPa | 0 mm | - | - | - |
| 1777542201 | 11.11° C | 36% | 999.3 hPa | 0 mm | - | - | - |
| 1777541902 | 11.67° C | 33% | 999.1 hPa | 0 mm | - | - | - |
| 1777540099 | 10.56° C | 33% | 999.3 hPa | 0 mm | - | - | - |
| 1777535895 | 9.44° C | 40% | 999.8 hPa | 0 mm | - | - | - |
| 1777534694 | 10° C | 41% | 999.8 hPa | 0 mm | - | - | - |
| 1777534393 | 9.44° C | 41% | 999.8 hPa | 0 mm | - | - | - |
| 1777534093 | 9.44° C | 41% | 999.8 hPa | 0 mm | - | - | - |
| 1777533492 | 9.44° C | 42% | 999.7 hPa | 0 mm | - | - | - |
| 1777532891 | 9.44° C | 43% | 999.7 hPa | 0 mm | - | - | - |
| 1777532292 | 8.89° C | 44% | 999.7 hPa | 0 mm | - | - | - |
| 1777531691 | 8.89° C | 43% | 999.9 hPa | 0 mm | - | - | - |
* Rain latest hour (hover to see other rain measurements)
** Current wind speed in m/s (hover to see current wind gust speed)